createdAt,value
2022-08-05T00:01:35.472Z,5.70
2022-08-05T00:04:08.418Z,5.60
2022-08-05T00:06:37.328Z,5.00
2022-08-05T00:09:13.147Z,5.10
2022-08-05T00:11:49.115Z,4.80
2022-08-05T00:14:27.697Z,5.40
2022-08-05T00:16:58.574Z,4.20
2022-08-05T00:19:33.552Z,5.20
2022-08-05T00:22:11.312Z,6.70
2022-08-05T00:24:42.452Z,4.80
2022-08-05T00:27:16.606Z,4.90
2022-08-05T00:32:15.340Z,6.10
2022-08-05T00:35:04.760Z,6.10
2022-08-05T00:37:52.334Z,5.90
2022-08-05T00:40:28.219Z,4.90
2022-08-05T00:43:03.144Z,4.90
2022-08-05T00:45:43.168Z,4.90
2022-08-05T00:48:15.983Z,4.70
2022-08-05T00:50:46.951Z,4.80
2022-08-05T00:54:01.325Z,5.40
2022-08-05T00:56:08.394Z,5.20
2022-08-05T00:58:37.922Z,5.10
2022-08-05T01:01:09.107Z,5.70
2022-08-05T01:03:40.044Z,4.70
2022-08-05T01:06:11.274Z,5.50
2022-08-05T01:08:47.150Z,5.70
2022-08-05T01:11:36.826Z,5.40
2022-08-05T01:14:28.233Z,6.60
2022-08-05T01:17:28.300Z,5.20
2022-08-05T01:20:33.351Z,5.30
2022-08-05T01:23:34.807Z,6.20
2022-08-05T01:26:40.366Z,5.60
2022-08-05T01:29:25.660Z,4.90
2022-08-05T01:31:59.437Z,5.30
2022-08-05T01:34:39.834Z,5.20
2022-08-05T01:37:33.133Z,5.10
2022-08-05T01:40:10.585Z,4.80
2022-08-05T01:42:43.024Z,5.30
2022-08-05T01:45:15.060Z,5.60
2022-08-05T01:47:47.852Z,5.70
2022-08-05T01:50:28.555Z,5.80
2022-08-05T01:53:07.931Z,5.20
2022-08-05T01:55:38.571Z,5.70
2022-08-05T01:58:15.994Z,4.60
2022-08-05T02:00:52.469Z,5.60
2022-08-05T02:03:31.468Z,6.70
2022-08-05T02:06:33.436Z,6.00
2022-08-05T02:08:58.393Z,5.10
2022-08-05T02:11:42.156Z,5.40
2022-08-05T02:14:21.393Z,7.30
2022-08-05T02:16:58.173Z,5.50
2022-08-05T02:19:48.630Z,5.00
2022-08-05T02:22:27.482Z,6.00
2022-08-05T02:25:09.102Z,6.40
2022-08-05T02:27:58.634Z,5.70
2022-08-05T02:30:54.202Z,6.00
2022-08-05T02:33:38.304Z,4.90
2022-08-05T02:36:16.785Z,5.50
2022-08-05T02:38:53.553Z,6.10
2022-08-05T02:41:28.651Z,6.20
2022-08-05T02:44:13.720Z,7.30
2022-08-05T02:46:58.681Z,5.60
2022-08-05T02:49:40.839Z,6.70
2022-08-05T02:52:29.713Z,6.70
2022-08-05T02:55:05.032Z,7.00
2022-08-05T02:58:10.176Z,7.20
2022-08-05T03:00:27.470Z,6.30
2022-08-05T03:03:00.244Z,6.50
2022-08-05T03:06:55.755Z,6.50
2022-08-05T03:08:27.084Z,6.90
2022-08-05T03:11:53.642Z,6.70
2022-08-05T03:13:51.533Z,6.30
2022-08-05T03:16:31.550Z,7.30
2022-08-05T03:19:12.731Z,6.60
2022-08-05T03:21:49.849Z,6.80
2022-08-05T03:24:29.927Z,6.00
2022-08-05T03:27:00.616Z,4.10
2022-08-05T03:29:45.990Z,5.10
2022-08-05T03:32:19.911Z,5.50
2022-08-05T03:34:51.134Z,5.60
2022-08-05T03:37:22.627Z,6.40
2022-08-05T03:40:01.151Z,6.40
2022-08-05T03:42:32.387Z,5.90
2022-08-05T03:45:22.475Z,5.90
2022-08-05T03:47:56.797Z,6.30
2022-08-05T03:50:41.516Z,5.90
2022-08-05T03:55:52.848Z,6.50
2022-08-05T03:56:42.291Z,6.60
2022-08-05T03:59:20.636Z,6.50
2022-08-05T04:01:52.442Z,6.70
2022-08-05T04:04:22.341Z,6.50
2022-08-05T04:06:56.274Z,6.80
2022-08-05T04:09:26.835Z,6.10
2022-08-05T04:11:57.092Z,6.70
2022-08-05T04:14:31.109Z,6.10
2022-08-05T04:17:00.909Z,6.00
2022-08-05T04:19:31.479Z,5.70
2022-08-05T04:22:09.302Z,5.40
2022-08-05T04:24:52.324Z,5.90
2022-08-05T04:27:42.152Z,6.10
2022-08-05T04:30:10.979Z,6.60
2022-08-05T04:32:40.056Z,6.60
2022-08-05T04:35:17.638Z,6.70
2022-08-05T04:38:01.488Z,6.50
2022-08-05T04:40:47.920Z,6.80
2022-08-05T04:45:55.078Z,6.80
2022-08-05T04:48:27.338Z,6.60
2022-08-05T04:51:03.750Z,6.50
2022-08-05T04:53:40.334Z,6.60
2022-08-05T04:56:32.979Z,6.80
2022-08-05T04:58:58.231Z,6.00
2022-08-05T05:02:06.213Z,6.40
2022-08-05T05:04:16.355Z,6.50
2022-08-05T05:06:49.341Z,6.10
2022-08-05T05:09:26.348Z,7.10
2022-08-05T05:12:00.267Z,12.00
2022-08-05T05:14:32.314Z,6.40
2022-08-05T05:17:01.802Z,6.10
2022-08-05T05:19:37.117Z,6.20
2022-08-05T05:22:23.406Z,6.70
2022-08-05T05:24:58.091Z,5.90
2022-08-05T05:27:41.273Z,6.20
2022-08-05T05:30:30.942Z,6.40
2022-08-05T05:33:16.256Z,6.20
2022-08-05T05:38:22.548Z,6.20
2022-08-05T05:40:57.245Z,6.00
2022-08-05T05:43:54.546Z,5.40
2022-08-05T05:46:16.114Z,7.00
2022-08-05T05:48:48.665Z,6.40
2022-08-05T05:51:27.884Z,6.50
2022-08-05T05:53:59.800Z,6.30
2022-08-05T05:56:32.507Z,6.60
2022-08-05T05:59:06.706Z,6.50
2022-08-05T06:01:40.014Z,6.00
2022-08-05T06:04:11.702Z,6.00
2022-08-05T06:06:43.327Z,6.60
2022-08-05T06:09:24.969Z,6.30
2022-08-05T06:11:59.590Z,5.40
2022-08-05T06:14:32.010Z,6.40
2022-08-05T06:17:22.076Z,6.00
2022-08-05T06:19:56.712Z,6.60
2022-08-05T06:22:33.712Z,6.40
2022-08-05T06:25:25.047Z,6.90
2022-08-05T06:28:12.790Z,6.20
2022-08-05T06:30:41.853Z,7.00
2022-08-05T06:33:10.843Z,6.90
2022-08-05T06:36:03.558Z,5.90
2022-08-05T06:38:36.051Z,5.40
2022-08-05T06:41:07.826Z,6.20
2022-08-05T06:43:57.479Z,6.20
2022-08-05T06:46:29.795Z,5.90
2022-08-05T06:49:01.075Z,6.80
2022-08-05T06:51:31.325Z,5.60
2022-08-05T06:54:01.894Z,6.50
2022-08-05T06:56:34.511Z,5.90
2022-08-05T06:59:08.426Z,5.70
2022-08-05T07:01:41.498Z,5.90
2022-08-05T07:04:11.201Z,5.80
2022-08-05T07:06:43.026Z,5.60
2022-08-05T07:09:11.315Z,6.10
2022-08-05T07:11:45.511Z,6.60
2022-08-05T07:14:37.350Z,5.40
2022-08-05T07:18:01.837Z,5.20
2022-08-05T07:22:45.607Z,6.30
2022-08-05T07:25:54.251Z,6.50
2022-08-05T07:28:05.903Z,6.40
2022-08-05T07:30:39.852Z,6.90
2022-08-05T07:33:15.539Z,6.10
2022-08-05T07:36:02.761Z,6.30
2022-08-05T07:38:43.358Z,6.80
2022-08-05T07:42:08.235Z,6.50
2022-08-05T07:44:19.291Z,6.90
2022-08-05T07:46:49.813Z,6.60
2022-08-05T07:49:20.620Z,4.80
2022-08-05T07:51:53.290Z,5.80
2022-08-05T07:54:30.981Z,6.60
2022-08-05T07:57:22.695Z,6.20
2022-08-05T07:59:53.586Z,5.70
2022-08-05T08:02:31.463Z,6.50
2022-08-05T08:05:17.962Z,5.90
2022-08-05T08:08:00.064Z,6.80
2022-08-05T08:10:30.105Z,6.40
2022-08-05T08:12:59.058Z,6.30
2022-08-05T08:16:33.891Z,6.90
2022-08-05T08:18:20.948Z,6.00
2022-08-05T08:21:02.390Z,6.30
2022-08-05T08:24:02.599Z,5.70
2022-08-05T08:26:26.609Z,5.40
2022-08-05T08:29:22.013Z,5.00
2022-08-05T08:31:49.577Z,5.30
2022-08-05T08:34:30.333Z,5.40
2022-08-05T08:37:04.914Z,6.20
2022-08-05T08:39:37.187Z,7.00
2022-08-05T08:42:33.911Z,5.90
2022-08-05T08:45:25.207Z,5.60
2022-08-05T08:48:13.054Z,5.70
2022-08-05T08:51:21.954Z,5.40
2022-08-05T08:53:44.347Z,5.60
2022-08-05T08:56:13.741Z,6.40
2022-08-05T08:58:48.039Z,6.10
2022-08-05T09:01:19.617Z,4.90
2022-08-05T09:03:54.476Z,5.50
2022-08-05T09:06:31.680Z,5.90
2022-08-05T09:09:02.373Z,5.60
2022-08-05T09:11:51.759Z,5.10
2022-08-05T09:14:58.978Z,5.40
2022-08-05T09:17:41.170Z,5.20
2022-08-05T09:20:05.853Z,5.10
2022-08-05T09:23:18.460Z,4.70
2022-08-05T09:26:02.659Z,5.10
2022-08-05T09:28:35.023Z,4.50
2022-08-05T09:31:23.011Z,5.10
2022-08-05T09:34:01.870Z,5.20
2022-08-05T09:36:55.945Z,5.20
2022-08-05T09:39:41.503Z,4.60
2022-08-05T09:42:24.523Z,4.40
2022-08-05T09:45:17.946Z,4.60
2022-08-05T09:47:55.661Z,4.50
2022-08-05T09:50:50.771Z,5.20
2022-08-05T09:53:26.129Z,5.00
2022-08-05T09:56:12.985Z,4.50
2022-08-05T09:58:42.409Z,4.50
2022-08-05T10:01:15.350Z,4.20
2022-08-05T10:04:11.322Z,4.70
2022-08-05T10:06:55.019Z,4.70
2022-08-05T10:09:29.450Z,4.40
2022-08-05T10:12:28.423Z,4.10
2022-08-05T10:15:20.778Z,4.70
2022-08-05T10:18:25.888Z,3.90
2022-08-05T10:21:11.872Z,3.80
2022-08-05T10:23:59.847Z,3.50
2022-08-05T10:26:31.694Z,4.20
2022-08-05T10:29:01.498Z,3.70
2022-08-05T10:32:53.045Z,4.00
2022-08-05T10:34:18.837Z,5.40
2022-08-05T10:36:54.664Z,4.00
2022-08-05T10:39:59.417Z,4.30
2022-08-05T10:42:33.741Z,4.00
2022-08-05T10:45:20.947Z,4.00
2022-08-05T10:48:29.808Z,4.40
2022-08-05T10:51:22.520Z,4.40
2022-08-05T10:53:51.260Z,4.60
2022-08-05T10:56:36.919Z,4.70
2022-08-05T11:00:01.066Z,4.10
2022-08-05T11:02:34.864Z,4.50
2022-08-05T11:05:10.742Z,4.30
2022-08-05T11:08:01.105Z,3.90
2022-08-05T11:10:34.873Z,4.40
2022-08-05T11:13:07.097Z,3.90
2022-08-05T11:16:00.099Z,4.20
2022-08-05T11:18:34.095Z,4.20
2022-08-05T11:21:11.472Z,3.60
2022-08-05T11:24:03.912Z,4.00
2022-08-05T11:26:43.135Z,3.50
2022-08-05T11:29:37.791Z,3.70
2022-08-05T11:34:56.407Z,4.30
2022-08-05T11:38:28.356Z,3.60
2022-08-05T11:41:01.820Z,4.10
2022-08-05T11:44:08.548Z,4.00
2022-08-05T11:46:58.451Z,4.20
2022-08-05T11:49:27.601Z,4.20
2022-08-05T11:51:57.323Z,3.80
2022-08-05T11:54:33.537Z,3.40
2022-08-05T11:57:08.353Z,4.00
2022-08-05T11:59:53.863Z,3.90
2022-08-05T12:02:32.012Z,3.40
2022-08-05T12:05:06.775Z,3.20
2022-08-05T12:08:07.310Z,3.90
2022-08-05T12:10:43.221Z,3.00
2022-08-05T12:13:18.853Z,3.00
2022-08-05T12:16:15.504Z,3.30
2022-08-05T12:18:48.961Z,3.60
2022-08-05T12:21:57.374Z,3.20
2022-08-05T12:24:26.059Z,3.60
2022-08-05T12:26:55.527Z,3.30
2022-08-05T12:29:39.050Z,3.00
2022-08-05T12:32:09.618Z,3.40
2022-08-05T12:34:40.719Z,3.10
2022-08-05T12:37:17.659Z,2.60
2022-08-05T12:39:55.896Z,3.00
2022-08-05T12:42:36.602Z,3.10
2022-08-05T12:45:15.508Z,2.80
2022-08-05T12:48:17.072Z,2.80
2022-08-05T12:50:33.999Z,2.80
2022-08-05T12:53:05.337Z,2.80
2022-08-05T12:55:43.870Z,2.70
2022-08-05T12:58:38.569Z,2.40
2022-08-05T13:02:02.931Z,2.60
2022-08-05T13:04:07.618Z,2.10
2022-08-05T13:06:51.942Z,2.80
2022-08-05T13:09:29.900Z,3.20
2022-08-05T13:12:07.492Z,2.50
2022-08-05T13:15:05.264Z,2.70
2022-08-05T13:17:41.678Z,2.80
2022-08-05T13:20:23.425Z,2.80
2022-08-05T13:22:54.423Z,2.90
2022-08-05T13:25:52.283Z,3.20
2022-08-05T13:28:14.224Z,3.00
2022-08-05T13:30:43.241Z,2.70
2022-08-05T13:33:14.175Z,3.00
2022-08-05T13:36:01.870Z,2.20
2022-08-05T13:38:36.235Z,3.90
2022-08-05T13:41:16.519Z,2.70
2022-08-05T13:43:54.920Z,3.20
2022-08-05T13:46:37.962Z,2.80
2022-08-05T13:49:16.805Z,2.90
2022-08-05T13:51:48.035Z,2.90
2022-08-05T13:54:21.094Z,3.00
2022-08-05T13:56:56.090Z,2.80
2022-08-05T13:59:26.977Z,2.70
2022-08-05T14:02:00.861Z,3.30
2022-08-05T14:04:52.542Z,3.50
2022-08-05T14:07:59.844Z,3.30
2022-08-05T14:10:28.718Z,4.00
2022-08-05T14:12:58.241Z,3.40
2022-08-05T14:16:05.085Z,3.70
2022-08-05T14:18:23.360Z,3.50
2022-08-05T14:20:54.910Z,3.30
2022-08-05T14:23:29.691Z,3.10
2022-08-05T14:26:35.504Z,3.50
2022-08-05T14:28:59.779Z,3.20
2022-08-05T14:32:03.751Z,3.50
2022-08-05T14:34:17.920Z,3.40
2022-08-05T14:36:54.175Z,3.50
2022-08-05T14:39:23.696Z,3.20
2022-08-05T14:42:19.548Z,3.50
2022-08-05T14:44:43.311Z,3.40
2022-08-05T14:47:14.569Z,3.30
2022-08-05T14:49:59.655Z,3.30
2022-08-05T14:52:51.700Z,3.30
2022-08-05T14:55:24.805Z,3.40
2022-08-05T14:57:54.479Z,3.40
2022-08-05T15:00:29.496Z,3.40
2022-08-05T15:02:58.555Z,3.30
2022-08-05T15:05:30.053Z,3.20
2022-08-05T15:08:37.938Z,3.30
2022-08-05T15:11:07.944Z,3.40
2022-08-05T15:13:45.914Z,3.00
2022-08-05T15:16:15.667Z,3.50
2022-08-05T15:18:47.283Z,3.80
2022-08-05T15:21:16.110Z,3.40
2022-08-05T15:23:50.287Z,3.70
2022-08-05T15:26:32.155Z,3.10
2022-08-05T15:29:02.504Z,3.50
2022-08-05T15:31:34.855Z,3.50
2022-08-05T15:34:18.535Z,2.90
2022-08-05T15:36:52.932Z,3.50
2022-08-05T15:41:01.186Z,2.80
2022-08-05T15:42:53.749Z,3.50
2022-08-05T15:45:00.430Z,3.60
2022-08-05T15:47:29.403Z,3.40
2022-08-05T15:50:02.352Z,3.00
2022-08-05T15:52:53.499Z,3.70
2022-08-05T15:55:24.463Z,3.60
2022-08-05T15:57:57.002Z,3.70
2022-08-05T16:00:32.499Z,3.50
2022-08-05T16:03:14.343Z,3.50
2022-08-05T16:05:43.543Z,3.10
2022-08-05T16:08:19.530Z,3.10
2022-08-05T16:10:48.195Z,3.50
2022-08-05T16:13:23.507Z,3.00
2022-08-05T16:15:53.281Z,3.00
2022-08-05T16:18:22.208Z,3.40
2022-08-05T16:20:58.883Z,2.80
2022-08-05T16:23:54.027Z,3.00
2022-08-05T16:26:26.586Z,3.10
2022-08-05T16:28:56.544Z,3.40
2022-08-05T16:31:25.119Z,3.50
2022-08-05T16:33:54.574Z,3.00
2022-08-05T16:36:23.819Z,3.30
2022-08-05T16:38:55.217Z,3.10
2022-08-05T16:42:14.042Z,2.90
2022-08-05T16:44:17.389Z,3.10
2022-08-05T16:46:55.630Z,3.10
2022-08-05T16:49:26.925Z,3.30
2022-08-05T16:51:58.193Z,3.10
2022-08-05T16:54:32.944Z,3.30
2022-08-05T16:57:02.140Z,3.00
2022-08-05T16:59:31.024Z,3.30
2022-08-05T17:02:00.946Z,3.20
2022-08-05T17:04:30.976Z,3.20
2022-08-05T17:07:03.476Z,3.40
2022-08-05T17:09:57.709Z,3.10
2022-08-05T17:12:51.254Z,3.70
2022-08-05T17:15:19.570Z,3.70
2022-08-05T17:18:02.168Z,3.30
2022-08-05T17:20:31.208Z,3.80
2022-08-05T17:23:00.251Z,3.30
2022-08-05T17:25:39.468Z,3.50
2022-08-05T17:28:11.405Z,3.50
2022-08-05T17:30:52.103Z,3.60
2022-08-05T17:33:21.487Z,4.10
2022-08-05T17:36:07.298Z,3.80
2022-08-05T17:38:42.593Z,3.70
2022-08-05T17:41:22.658Z,3.50
2022-08-05T17:44:00.019Z,4.30
2022-08-05T17:46:31.858Z,4.10
2022-08-05T17:49:00.510Z,4.10
2022-08-05T17:51:40.486Z,4.20
2022-08-05T17:54:10.408Z,4.10
2022-08-05T17:56:38.995Z,4.50
2022-08-05T17:59:08.186Z,4.80
2022-08-05T18:01:42.685Z,4.50
2022-08-05T18:04:21.387Z,4.40
2022-08-05T18:06:55.898Z,4.30
2022-08-05T18:09:59.554Z,4.30
2022-08-05T18:12:24.899Z,4.90
2022-08-05T18:14:53.791Z,5.00
2022-08-05T18:18:00.352Z,4.20
2022-08-05T18:20:13.848Z,4.10
2022-08-05T18:22:54.153Z,4.80
2022-08-05T18:25:23.871Z,4.90
2022-08-05T18:27:53.978Z,5.10
2022-08-05T18:30:26.342Z,5.80
2022-08-05T18:33:01.103Z,5.10
2022-08-05T18:36:00.911Z,5.40
2022-08-05T18:38:25.707Z,5.40
2022-08-05T18:41:55.278Z,5.40
2022-08-05T18:43:48.643Z,5.40
2022-08-05T18:49:18.582Z,5.10
2022-08-05T18:52:08.976Z,5.80
2022-08-05T18:54:41.164Z,5.20
2022-08-05T18:57:16.092Z,6.30
2022-08-05T19:00:01.723Z,5.70
2022-08-05T19:02:32.739Z,6.20
2022-08-05T19:06:05.951Z,6.40
2022-08-05T19:07:52.839Z,6.30
2022-08-05T19:10:26.483Z,6.40
2022-08-05T19:12:57.653Z,6.00
2022-08-05T19:16:00.287Z,6.70
2022-08-05T19:18:22.045Z,6.20
2022-08-05T19:20:53.657Z,7.30
2022-08-05T19:24:07.388Z,6.50
2022-08-05T19:26:11.978Z,6.50
2022-08-05T19:28:44.966Z,6.50
2022-08-05T19:31:18.111Z,6.90
2022-08-05T19:33:56.374Z,6.70
2022-08-05T19:36:29.273Z,6.90
2022-08-05T19:39:00.791Z,6.10
2022-08-05T19:41:58.250Z,6.70
2022-08-05T19:44:25.869Z,6.30
2022-08-05T19:46:59.675Z,6.10
2022-08-05T19:49:28.378Z,6.50
2022-08-05T19:52:08.853Z,7.10
2022-08-05T19:54:49.808Z,7.10
2022-08-05T19:57:18.740Z,7.10
2022-08-05T20:00:08.589Z,6.80
2022-08-05T20:02:40.966Z,6.70
2022-08-05T20:05:24.205Z,6.40
2022-08-05T20:07:57.979Z,5.60
2022-08-05T20:10:27.993Z,6.40
2022-08-05T20:12:57.724Z,6.70
2022-08-05T20:15:51.647Z,7.60
2022-08-05T20:18:33.846Z,6.90
2022-08-05T20:21:05.347Z,7.90
2022-08-05T20:23:51.310Z,7.30
2022-08-05T20:26:25.774Z,7.00
2022-08-05T20:29:00.628Z,8.20
2022-08-05T20:31:42.800Z,7.00
2022-08-05T20:34:18.847Z,7.70
2022-08-05T20:36:48.854Z,6.60
2022-08-05T20:39:18.783Z,6.70
2022-08-05T20:41:48.237Z,6.70
2022-08-05T20:44:29.669Z,6.60
2022-08-05T20:47:04.195Z,7.10
2022-08-05T20:49:33.199Z,7.30
2022-08-05T20:52:10.544Z,7.40
2022-08-05T20:54:59.963Z,7.40
2022-08-05T20:57:43.053Z,7.30
2022-08-05T21:00:41.176Z,7.30
2022-08-05T21:03:07.338Z,7.00
2022-08-05T21:05:53.696Z,7.00
2022-08-05T21:08:42.301Z,6.80
2022-08-05T21:11:51.559Z,6.80
2022-08-05T21:14:02.568Z,7.20
2022-08-05T21:16:31.231Z,7.30
2022-08-05T21:19:01.343Z,6.60
2022-08-05T21:21:43.909Z,7.50
2022-08-05T21:24:19.921Z,7.90
2022-08-05T21:26:58.008Z,7.80
2022-08-05T21:29:31.982Z,8.60
2022-08-05T21:32:04.388Z,7.50
2022-08-05T21:34:35.558Z,7.50
2022-08-05T21:37:05.232Z,6.90
2022-08-05T21:39:40.258Z,7.00
2022-08-05T21:42:30.930Z,7.40
2022-08-05T21:44:59.814Z,7.50
2022-08-05T21:47:54.890Z,8.20
2022-08-05T21:50:17.882Z,8.10
2022-08-05T21:52:47.435Z,7.60
2022-08-05T21:55:18.404Z,7.10
2022-08-05T21:58:07.195Z,7.30
2022-08-05T22:00:40.130Z,7.50
2022-08-05T22:03:14.712Z,7.40
2022-08-05T22:05:49.163Z,7.70
2022-08-05T22:08:22.367Z,7.70
2022-08-05T22:10:53.650Z,7.70
2022-08-05T22:14:05.804Z,7.60
2022-08-05T22:16:41.144Z,7.90
2022-08-05T22:18:59.752Z,7.70
2022-08-05T22:21:28.539Z,7.50
2022-08-05T22:24:39.567Z,7.90
2022-08-05T22:27:25.188Z,8.20
2022-08-05T22:30:17.280Z,8.10
2022-08-05T22:32:46.298Z,7.70
2022-08-05T22:35:14.945Z,7.80
2022-08-05T22:37:59.039Z,8.70
2022-08-05T22:40:30.650Z,6.70
2022-08-05T22:42:59.653Z,8.50
2022-08-05T22:45:28.330Z,7.70
2022-08-05T22:47:59.491Z,7.10
2022-08-05T22:50:28.214Z,8.60
2022-08-05T22:52:57.030Z,8.60
2022-08-05T22:55:26.220Z,7.90
2022-08-05T22:57:55.186Z,7.20
2022-08-05T23:00:24.789Z,7.20
2022-08-05T23:02:56.385Z,7.80
2022-08-05T23:05:26.868Z,7.50
2022-08-05T23:07:55.496Z,7.70
2022-08-05T23:10:24.462Z,8.20
2022-08-05T23:12:55.538Z,8.60
2022-08-05T23:15:34.898Z,7.70
2022-08-05T23:18:06.102Z,8.90
2022-08-05T23:20:43.216Z,8.20
2022-08-05T23:23:12.161Z,8.00
2022-08-05T23:25:53.411Z,7.00
2022-08-05T23:28:27.632Z,7.70
2022-08-05T23:31:16.136Z,7.80
2022-08-05T23:34:05.176Z,8.50
2022-08-05T23:36:41.566Z,8.80
2022-08-05T23:39:17.687Z,8.10
2022-08-05T23:42:01.630Z,8.40
2022-08-05T23:44:32.370Z,8.80
2022-08-05T23:47:02.678Z,8.60
2022-08-05T23:49:46.139Z,7.90
2022-08-05T23:52:27.682Z,8.10
2022-08-05T23:54:59.681Z,8.20
2022-08-05T23:57:28.517Z,8.70
